createdAt,value
2019-01-11T00:02:23.365Z,102207.41
2019-01-11T00:04:53.304Z,102208.80
2019-01-11T00:07:23.522Z,102209.20
2019-01-11T00:09:53.369Z,102205.57
2019-01-11T00:12:23.230Z,102204.08
2019-01-11T00:14:53.470Z,102201.78
2019-01-11T00:17:24.263Z,102197.36
2019-01-11T00:19:54.504Z,102195.65
2019-01-11T00:22:24.446Z,102197.00
2019-01-11T00:24:54.693Z,102197.77
2019-01-11T00:27:24.581Z,102198.27
2019-01-11T00:29:54.498Z,102200.47
2019-01-11T00:32:24.422Z,102196.55
2019-01-11T00:34:54.337Z,102196.64
2019-01-11T00:37:24.263Z,102194.93
2019-01-11T00:39:54.122Z,102191.91
2019-01-11T00:42:24.398Z,102184.48
2019-01-11T00:44:54.308Z,102182.77
2019-01-11T00:47:24.229Z,102181.86
2019-01-11T00:49:54.145Z,102176.23
2019-01-11T00:52:24.062Z,102173.97
2019-01-11T00:54:53.983Z,102175.14
2019-01-11T00:57:24.142Z,102174.11
2019-01-11T00:59:54.386Z,102177.53
2019-01-11T01:02:24.313Z,102173.16
2019-01-11T01:04:54.536Z,102174.02
2019-01-11T01:07:24.473Z,102173.97
2019-01-11T01:09:54.390Z,102171.30
2019-01-11T01:12:24.666Z,102170.50
2019-01-11T01:14:54.595Z,102171.90
2019-01-11T01:17:24.517Z,102168.43
2019-01-11T01:19:54.479Z,102166.67
2019-01-11T01:22:24.364Z,102162.39
2019-01-11T01:24:54.288Z,102162.47
2019-01-11T01:27:24.226Z,102160.72
2019-01-11T01:29:54.144Z,102163.38
2019-01-11T01:32:24.009Z,102169.06
2019-01-11T01:34:54.159Z,102169.15
2019-01-11T01:37:24.091Z,102167.80
2019-01-11T01:39:54.345Z,102168.39
2019-01-11T01:42:25.696Z,102157.80
2019-01-11T01:44:55.856Z,102157.84
2019-01-11T01:47:26.079Z,102158.20
2019-01-11T01:49:55.929Z,102160.23
2019-01-11T01:52:25.855Z,102165.46
2019-01-11T01:54:55.915Z,102151.98
2019-01-11T01:57:25.778Z,102155.01
2019-01-11T01:59:55.556Z,102157.84
2019-01-11T02:02:26.552Z,102160.09
2019-01-11T02:04:56.484Z,102158.43
2019-01-11T02:07:26.774Z,102162.89
2019-01-11T02:09:56.704Z,102159.02
2019-01-11T02:12:26.629Z,102151.63
2019-01-11T02:14:56.889Z,102147.26
2019-01-11T02:17:26.811Z,102149.28
2019-01-11T02:19:56.750Z,102153.70
2019-01-11T02:22:26.981Z,102153.75
2019-01-11T02:24:56.837Z,102148.78
2019-01-11T02:27:26.784Z,102141.94
2019-01-11T02:29:56.995Z,102134.59
2019-01-11T02:32:26.921Z,102132.79
2019-01-11T02:34:57.171Z,102133.60
2019-01-11T02:37:27.395Z,102129.59
2019-01-11T02:39:57.687Z,102121.20
2019-01-11T02:42:27.600Z,102120.18
2019-01-11T02:44:57.461Z,102114.91
2019-01-11T02:47:27.394Z,102112.75
2019-01-11T02:49:57.317Z,102102.20
2019-01-11T02:52:27.254Z,102107.78
2019-01-11T02:54:57.528Z,102101.55
2019-01-11T02:57:27.729Z,102097.51
2019-01-11T02:59:58.897Z,102094.44
2019-01-11T03:02:29.053Z,102095.70
2019-01-11T03:05:00.970Z,102093.49
2019-01-11T03:07:30.990Z,102093.89
2019-01-11T03:10:00.845Z,102090.87
2019-01-11T03:12:30.786Z,102084.34
2019-01-11T03:15:00.630Z,102082.58
2019-01-11T03:17:30.569Z,102082.53
2019-01-11T03:20:00.490Z,102081.13
2019-01-11T03:22:30.418Z,102079.82
2019-01-11T03:25:00.332Z,102075.91
2019-01-11T03:27:30.491Z,102076.00
2019-01-11T03:30:00.331Z,102073.89
2019-01-11T03:32:30.832Z,102069.66
2019-01-11T03:35:17.030Z,102069.03
2019-01-11T03:37:48.997Z,102063.41
2019-01-11T03:40:21.264Z,102060.84
2019-01-11T03:42:51.696Z,102053.91
2019-01-11T03:45:23.351Z,102051.39
2019-01-11T03:47:53.283Z,102047.19
2019-01-11T03:50:23.982Z,102049.41
2019-01-11T03:52:54.231Z,102046.21
2019-01-11T03:55:24.522Z,102037.52
2019-01-11T03:57:54.454Z,102039.17
2019-01-11T04:00:25.281Z,102039.13
2019-01-11T04:02:55.212Z,102037.77
2019-01-11T04:05:25.141Z,102033.00
2019-01-11T04:07:54.926Z,102035.06
2019-01-11T04:10:25.252Z,102033.25
2019-01-11T04:12:55.164Z,102027.92
2019-01-11T04:15:25.224Z,102018.24
2019-01-11T04:18:13.322Z,102021.61
2019-01-11T04:20:43.257Z,102015.88
2019-01-11T04:23:13.182Z,102020.61
2019-01-11T04:25:47.451Z,102016.18
2019-01-11T04:28:17.400Z,102005.22
2019-01-11T04:30:47.331Z,102007.33
2019-01-11T04:33:17.195Z,102006.84
2019-01-11T04:35:47.121Z,102008.10
2019-01-11T04:38:16.982Z,102008.05
2019-01-11T04:40:47.196Z,102000.61
2019-01-11T04:43:17.045Z,102003.63
2019-01-11T04:45:47.391Z,101997.55
2019-01-11T04:48:17.247Z,101992.71
2019-01-11T04:50:47.409Z,101996.63
2019-01-11T04:53:17.710Z,101993.11
2019-01-11T04:55:47.640Z,101993.52
2019-01-11T04:58:17.854Z,101990.50
2019-01-11T05:00:47.755Z,101984.36
2019-01-11T05:03:17.688Z,101987.33
2019-01-11T05:05:47.998Z,101989.59
2019-01-11T05:08:18.574Z,101986.98
2019-01-11T05:10:49.113Z,101990.39
2019-01-11T05:13:38.444Z,101990.39
2019-01-11T05:16:08.588Z,101990.80
2019-01-11T05:18:38.522Z,101988.98
2019-01-11T05:21:08.774Z,101993.22
2019-01-11T05:23:39.260Z,101986.17
2019-01-11T05:26:09.557Z,101986.13
2019-01-11T05:28:39.827Z,101979.08
2019-01-11T05:31:09.694Z,101977.77
2019-01-11T05:33:41.261Z,101980.34
2019-01-11T05:36:11.112Z,101976.36
2019-01-11T05:38:42.042Z,101972.78
2019-01-11T05:41:11.894Z,101974.14
2019-01-11T05:43:42.355Z,101970.11
2019-01-11T05:46:12.466Z,101972.33
2019-01-11T05:48:42.718Z,101977.56
2019-01-11T05:51:12.961Z,101973.19
2019-01-11T05:53:43.105Z,101976.20
2019-01-11T05:56:15.323Z,101977.96
2019-01-11T05:58:52.158Z,101975.74
2019-01-11T06:01:22.080Z,101972.22
2019-01-11T06:03:53.349Z,101970.52
2019-01-11T06:06:23.570Z,101972.22
2019-01-11T06:08:53.531Z,101970.06
2019-01-11T06:11:23.376Z,101970.11
2019-01-11T06:13:53.575Z,101971.02
2019-01-11T06:16:23.506Z,101963.58
2019-01-11T06:18:53.437Z,101959.59
2019-01-11T06:21:23.283Z,101965.14
2019-01-11T06:23:53.080Z,101972.87
2019-01-11T06:26:22.938Z,101976.80
2019-01-11T06:28:53.535Z,101970.16
2019-01-11T06:31:23.470Z,101962.30
2019-01-11T06:33:53.683Z,101961.40
2019-01-11T06:36:23.615Z,101968.73
2019-01-11T06:38:53.622Z,101973.52
2019-01-11T06:41:25.795Z,101966.52
2019-01-11T06:43:55.651Z,101974.77
2019-01-11T06:46:26.292Z,101976.02
2019-01-11T06:48:56.283Z,101973.31
2019-01-11T06:51:26.174Z,101980.40
2019-01-11T06:53:57.773Z,101974.31
2019-01-11T06:56:27.699Z,101977.78
2019-01-11T06:58:57.674Z,101979.09
2019-01-11T07:01:27.959Z,101976.02
2019-01-11T07:03:58.111Z,101976.98
2019-01-11T07:06:27.976Z,101965.16
2019-01-11T07:08:57.956Z,101965.55
2019-01-11T07:11:27.906Z,101973.06
2019-01-11T07:13:57.753Z,101970.05
2019-01-11T07:16:27.681Z,101980.51
2019-01-11T07:18:57.496Z,101973.57
2019-01-11T07:21:27.518Z,101979.77
2019-01-11T07:23:57.530Z,101975.84
2019-01-11T07:26:27.460Z,101972.08
2019-01-11T07:28:57.405Z,101982.73
2019-01-11T07:31:30.588Z,101971.53
2019-01-11T07:34:00.584Z,101976.47
2019-01-11T07:36:32.685Z,101975.77
2019-01-11T07:39:04.220Z,101974.47
2019-01-11T07:41:34.368Z,101975.91
2019-01-11T07:44:04.445Z,101982.50
2019-01-11T07:46:34.383Z,101980.84
2019-01-11T07:49:04.316Z,101984.06
2019-01-11T07:51:34.235Z,101985.27
2019-01-11T07:54:05.789Z,101983.00
2019-01-11T07:56:36.071Z,101987.27
2019-01-11T07:59:06.287Z,101980.69
2019-01-11T08:01:36.625Z,101986.69
2019-01-11T08:04:06.923Z,101978.92
2019-01-11T08:06:37.059Z,101971.19
2019-01-11T08:09:08.973Z,101973.85
2019-01-11T08:11:38.909Z,101970.89
2019-01-11T08:14:09.607Z,101974.47
2019-01-11T08:16:40.562Z,101974.52
2019-01-11T08:19:10.495Z,101974.92
2019-01-11T08:21:40.432Z,101982.81
2019-01-11T08:24:11.789Z,101976.87
2019-01-11T08:26:42.015Z,101975.11
2019-01-11T08:29:11.946Z,101974.17
2019-01-11T08:31:41.819Z,101966.17
2019-01-11T08:34:12.362Z,101969.94
2019-01-11T08:36:43.212Z,101977.72
2019-01-11T08:39:13.156Z,101974.92
2019-01-11T08:41:43.049Z,101969.69
2019-01-11T08:44:12.999Z,101981.54
2019-01-11T08:46:43.259Z,101971.84
2019-01-11T08:49:13.117Z,101980.89
2019-01-11T08:51:43.353Z,101981.24
2019-01-11T08:54:13.288Z,101976.81
2019-01-11T08:56:43.210Z,101970.17
2019-01-11T08:59:13.430Z,101977.00
2019-01-11T09:01:43.679Z,101970.45
2019-01-11T09:04:13.616Z,101964.94
2019-01-11T09:06:43.537Z,101967.90
2019-01-11T09:09:13.481Z,101959.51
2019-01-11T09:11:43.804Z,101971.57
2019-01-11T09:14:32.746Z,101978.56
2019-01-11T09:17:02.611Z,101975.95
2019-01-11T09:19:32.939Z,101981.23
2019-01-11T09:22:02.868Z,101983.39
2019-01-11T09:24:33.389Z,101986.02
2019-01-11T09:27:03.336Z,101982.54
2019-01-11T09:29:33.222Z,101976.76
2019-01-11T09:32:03.137Z,101973.23
2019-01-11T09:34:33.010Z,101970.97
2019-01-11T09:37:02.928Z,101979.22
2019-01-11T09:39:32.861Z,101985.52
2019-01-11T09:42:02.792Z,101979.77
2019-01-11T09:44:32.730Z,101982.23
2019-01-11T09:47:02.669Z,101980.84
2019-01-11T09:49:32.944Z,101986.02
2019-01-11T09:52:02.908Z,101986.92
2019-01-11T09:54:33.031Z,101982.59
2019-01-11T09:57:02.892Z,101989.94
2019-01-11T09:59:35.192Z,101984.36
2019-01-11T10:02:35.295Z,101981.63
2019-01-11T10:05:07.352Z,101986.36
2019-01-11T10:07:37.275Z,101983.13
2019-01-11T10:10:12.206Z,101977.73
2019-01-11T10:12:42.125Z,101990.21
2019-01-11T10:15:14.287Z,101986.29
2019-01-11T10:17:44.221Z,101983.16
2019-01-11T10:20:14.645Z,101979.52
2019-01-11T10:22:44.559Z,101977.25
2019-01-11T10:25:14.501Z,101980.58
2019-01-11T10:27:44.438Z,101979.16
2019-01-11T10:30:16.542Z,101979.95
2019-01-11T10:32:47.447Z,101968.58
2019-01-11T10:35:17.731Z,101968.06
2019-01-11T10:37:47.682Z,101962.32
2019-01-11T10:40:18.501Z,101960.10
2019-01-11T10:42:49.623Z,101964.82
2019-01-11T10:45:22.128Z,101963.46
2019-01-11T10:47:55.514Z,101962.61
2019-01-11T10:50:25.375Z,101964.77
2019-01-11T10:52:55.376Z,101955.45
2019-01-11T10:55:25.329Z,101960.52
2019-01-11T10:57:55.309Z,101962.28
2019-01-11T11:00:28.186Z,101955.69
2019-01-11T11:02:58.627Z,101952.44
2019-01-11T11:05:29.140Z,101942.08
2019-01-11T11:07:59.065Z,101950.84
2019-01-11T11:10:29.286Z,101947.83
2019-01-11T11:12:59.231Z,101941.34
2019-01-11T11:15:29.089Z,101946.58
2019-01-11T11:17:59.646Z,101933.55
2019-01-11T11:20:29.593Z,101933.20
2019-01-11T11:22:59.789Z,101936.34
2019-01-11T11:25:30.253Z,101942.42
2019-01-11T11:28:00.160Z,101939.22
2019-01-11T11:30:30.388Z,101941.50
2019-01-11T11:33:01.793Z,101938.87
2019-01-11T11:35:32.746Z,101934.84
2019-01-11T11:38:02.674Z,101937.00
2019-01-11T11:40:33.397Z,101938.37
2019-01-11T11:43:04.640Z,101938.77
2019-01-11T11:45:34.540Z,101927.84
2019-01-11T11:48:04.473Z,101934.72
2019-01-11T11:50:34.389Z,101934.67
2019-01-11T11:53:04.335Z,101933.27
2019-01-11T11:55:34.338Z,101929.80
2019-01-11T11:58:04.372Z,101930.66
2019-01-11T12:00:34.363Z,101920.12
2019-01-11T12:03:04.853Z,101918.81
2019-01-11T12:05:34.818Z,101916.88
2019-01-11T12:08:05.152Z,101911.58
2019-01-11T12:10:35.067Z,101904.64
2019-01-11T12:13:05.100Z,101908.50
2019-01-11T12:15:34.970Z,101907.08
2019-01-11T12:18:05.166Z,101901.69
2019-01-11T12:20:35.646Z,101894.29
2019-01-11T12:23:05.754Z,101892.86
2019-01-11T12:25:35.928Z,101890.52
2019-01-11T12:28:05.844Z,101890.95
2019-01-11T12:30:35.764Z,101889.91
2019-01-11T12:33:05.994Z,101882.84
2019-01-11T12:35:35.926Z,101883.70
2019-01-11T12:38:06.933Z,101870.06
2019-01-11T12:40:36.779Z,101868.17
2019-01-11T12:43:06.699Z,101863.27
2019-01-11T12:45:36.634Z,101863.66
2019-01-11T12:48:06.560Z,101858.42
2019-01-11T12:50:36.832Z,101853.91
2019-01-11T12:53:06.819Z,101856.86
2019-01-11T12:55:36.750Z,101853.63
2019-01-11T12:58:06.707Z,101856.58
2019-01-11T13:00:36.633Z,101853.89
2019-01-11T13:03:06.488Z,101850.87
2019-01-11T13:05:36.438Z,101842.17
2019-01-11T13:08:06.374Z,101843.41
2019-01-11T13:10:36.354Z,101846.88
2019-01-11T13:13:06.662Z,101839.09
2019-01-11T13:15:36.885Z,101846.55
2019-01-11T13:18:06.949Z,101837.39
2019-01-11T13:20:36.881Z,101835.75
2019-01-11T13:23:06.807Z,101838.70
2019-01-11T13:25:36.741Z,101830.51
2019-01-11T13:28:06.669Z,101835.41
2019-01-11T13:30:36.597Z,101832.10
2019-01-11T13:33:06.523Z,101823.33
2019-01-11T13:35:36.421Z,101821.95
2019-01-11T13:38:06.520Z,101824.48
2019-01-11T13:40:36.501Z,101820.25
2019-01-11T13:43:06.360Z,101815.87
2019-01-11T13:45:36.281Z,101816.27
2019-01-11T13:48:06.216Z,101816.63
2019-01-11T13:50:38.451Z,101812.17
2019-01-11T13:53:10.540Z,101808.77
2019-01-11T13:55:40.654Z,101811.19
2019-01-11T13:58:10.560Z,101813.36
2019-01-11T14:00:40.992Z,101814.59
2019-01-11T14:03:11.009Z,101813.16
2019-01-11T14:05:42.143Z,101810.54
2019-01-11T14:08:12.073Z,101809.63
2019-01-11T14:10:42.028Z,101810.41
2019-01-11T14:13:11.900Z,101805.11
2019-01-11T14:15:41.853Z,101804.55
2019-01-11T14:18:11.789Z,101807.17
2019-01-11T14:20:41.655Z,101807.50
2019-01-11T14:23:11.692Z,101796.89
2019-01-11T14:25:41.882Z,101799.44
2019-01-11T14:28:11.861Z,101797.15
2019-01-11T14:30:41.791Z,101799.77
2019-01-11T14:33:11.905Z,101804.95
2019-01-11T14:35:41.823Z,101803.93
2019-01-11T14:38:11.822Z,101797.77
2019-01-11T14:40:41.690Z,101801.96
2019-01-11T14:43:11.558Z,101798.35
2019-01-11T14:45:41.662Z,101802.61
2019-01-11T14:48:11.668Z,101800.25
2019-01-11T14:50:41.606Z,101802.70
2019-01-11T14:53:11.670Z,101803.48
2019-01-11T14:55:42.158Z,101799.81
2019-01-11T14:58:12.449Z,101806.16
2019-01-11T15:00:42.440Z,101797.84
2019-01-11T15:03:12.384Z,101798.98
2019-01-11T15:05:42.385Z,101797.40
2019-01-11T15:08:12.321Z,101797.79
2019-01-11T15:10:42.247Z,101809.06
2019-01-11T15:13:12.503Z,101809.84
2019-01-11T15:15:42.467Z,101804.53
2019-01-11T15:18:13.527Z,101804.36
2019-01-11T15:20:43.657Z,101807.83
2019-01-11T15:23:13.803Z,101811.10
2019-01-11T15:25:43.824Z,101812.66
2019-01-11T15:28:15.145Z,101802.42
2019-01-11T15:30:45.575Z,101809.27
2019-01-11T15:33:15.877Z,101802.64
2019-01-11T15:35:45.721Z,101803.95
2019-01-11T15:38:17.399Z,101805.52
2019-01-11T15:40:47.580Z,101806.83
2019-01-11T15:43:17.656Z,101806.30
2019-01-11T15:45:47.955Z,101806.30
2019-01-11T15:48:21.442Z,101803.14
2019-01-11T15:50:58.283Z,101808.60
2019-01-11T15:53:35.203Z,101803.00
2019-01-11T15:56:07.269Z,101796.27
2019-01-11T15:58:37.410Z,101802.83
2019-01-11T16:01:07.795Z,101801.52
2019-01-11T16:03:38.731Z,101801.97
2019-01-11T16:06:33.837Z,101799.28
2019-01-11T16:09:56.347Z,101810.70
2019-01-11T16:12:32.622Z,101803.28
2019-01-11T16:15:18.042Z,101798.11
2019-01-11T16:17:47.968Z,101796.80
2019-01-11T16:20:18.530Z,101798.11
2019-01-11T16:22:48.483Z,101792.97
2019-01-11T16:25:18.699Z,101799.14
2019-01-11T16:27:48.636Z,101791.66
2019-01-11T16:30:18.556Z,101797.44
2019-01-11T16:32:48.664Z,101795.27
2019-01-11T16:35:18.807Z,101799.98
2019-01-11T16:37:48.755Z,101791.66
2019-01-11T16:40:18.712Z,101801.22
2019-01-11T16:42:48.647Z,101794.52
2019-01-11T16:45:18.669Z,101804.48
2019-01-11T16:47:48.977Z,101804.48
2019-01-11T16:50:18.923Z,101800.55
2019-01-11T16:52:48.870Z,101813.03
2019-01-11T16:55:18.725Z,101811.27
2019-01-11T16:57:48.693Z,101814.81
2019-01-11T17:00:18.964Z,101820.45
2019-01-11T17:02:48.978Z,101813.50
2019-01-11T17:05:19.952Z,101820.06
2019-01-11T17:07:49.989Z,101821.37
2019-01-11T17:10:19.983Z,101817.50
2019-01-11T17:12:49.888Z,101821.37
2019-01-11T17:15:19.849Z,101822.61
2019-01-11T17:17:49.798Z,101819.52
2019-01-11T17:20:19.642Z,101820.45
2019-01-11T17:22:53.160Z,101818.21
2019-01-11T17:25:21.214Z,101823.39
2019-01-11T17:27:51.236Z,101818.28
2019-01-11T17:30:21.161Z,101823.46
2019-01-11T17:32:51.157Z,101830.02
2019-01-11T17:35:23.750Z,101829.48
2019-01-11T17:37:53.901Z,101830.09
2019-01-11T17:40:23.855Z,101834.03
2019-01-11T17:42:53.786Z,101834.56
2019-01-11T17:45:23.694Z,101834.10
2019-01-11T17:47:54.064Z,101834.10
2019-01-11T17:50:23.980Z,101835.41
2019-01-11T17:52:59.815Z,101841.62
2019-01-11T17:55:25.688Z,101839.81
2019-01-11T17:57:55.867Z,101833.57
2019-01-11T18:00:26.221Z,101838.81
2019-01-11T18:02:56.146Z,101839.28
2019-01-11T18:05:27.153Z,101838.75
2019-01-11T18:07:57.461Z,101841.83
2019-01-11T18:10:27.328Z,101837.12
2019-01-11T18:12:57.279Z,101839.67
2019-01-11T18:15:27.249Z,101850.23
2019-01-11T18:17:57.020Z,101839.45
2019-01-11T18:20:28.895Z,101852.12
2019-01-11T18:22:58.998Z,101849.95
2019-01-11T18:25:28.941Z,101848.54
2019-01-11T18:27:58.877Z,101849.56
2019-01-11T18:30:28.918Z,101847.41
2019-01-11T18:32:58.895Z,101849.10
2019-01-11T18:35:29.023Z,101855.27
2019-01-11T18:37:58.955Z,101854.25
2019-01-11T18:40:28.902Z,101860.91
2019-01-11T18:42:58.768Z,101857.90
2019-01-11T18:45:29.281Z,101864.53
2019-01-11T18:47:59.487Z,101864.92
2019-01-11T18:50:29.588Z,101863.67
2019-01-11T18:52:59.533Z,101873.19
2019-01-11T18:55:29.838Z,101872.47
2019-01-11T18:57:59.693Z,101868.78
2019-01-11T19:00:29.668Z,101875.63
2019-01-11T19:02:59.901Z,101868.86
2019-01-11T19:05:30.208Z,101876.80
2019-01-11T19:08:01.363Z,101871.88
2019-01-11T19:10:31.288Z,101874.95
2019-01-11T19:13:01.168Z,101879.18
2019-01-11T19:15:32.278Z,101882.44
2019-01-11T19:18:02.237Z,101879.42
2019-01-11T19:20:33.594Z,101881.66
2019-01-11T19:23:06.040Z,101883.36
2019-01-11T19:25:36.285Z,101882.51
2019-01-11T19:28:06.388Z,101877.79
2019-01-11T19:30:36.314Z,101884.81
2019-01-11T19:33:06.313Z,101885.20
2019-01-11T19:35:36.486Z,101885.52
2019-01-11T19:38:06.778Z,101886.91
2019-01-11T19:40:37.137Z,101889.53
2019-01-11T19:43:07.339Z,101886.91
2019-01-11T19:45:37.798Z,101892.55
2019-01-11T19:48:07.742Z,101889.92
2019-01-11T19:50:37.677Z,101895.10
2019-01-11T19:53:09.244Z,101893.47
2019-01-11T19:55:39.316Z,101888.22
2019-01-11T19:58:09.261Z,101896.02
2019-01-11T20:00:39.261Z,101892.02
2019-01-11T20:03:09.707Z,101889.14
2019-01-11T20:05:40.143Z,101887.89
2019-01-11T20:08:10.196Z,101891.37
2019-01-11T20:10:40.361Z,101902.33
2019-01-11T20:13:10.216Z,101900.55
2019-01-11T20:15:40.117Z,101895.77
2019-01-11T20:18:10.111Z,101897.93
2019-01-11T20:20:40.926Z,101900.69
2019-01-11T20:23:11.311Z,101900.55
2019-01-11T20:25:41.277Z,101902.92
2019-01-11T20:28:11.682Z,101908.17
2019-01-11T20:30:41.684Z,101907.25
2019-01-11T20:33:11.653Z,101903.18
2019-01-11T20:35:41.584Z,101901.80
2019-01-11T20:38:12.458Z,101904.88
2019-01-11T20:40:43.042Z,101901.87
2019-01-11T20:43:13.145Z,101897.93
2019-01-11T20:45:43.025Z,101901.48
2019-01-11T20:48:13.020Z,101900.23
2019-01-11T20:50:42.936Z,101893.53
2019-01-11T20:53:13.435Z,101901.61
2019-01-11T20:55:43.333Z,101901.22
2019-01-11T20:58:13.570Z,101893.61
2019-01-11T21:00:44.094Z,101907.64
2019-01-11T21:03:14.581Z,101901.48
2019-01-11T21:05:45.008Z,101896.44
2019-01-11T21:08:18.881Z,101903.84
2019-01-11T21:10:49.621Z,101900.83
2019-01-11T21:13:20.007Z,101901.39
2019-01-11T21:15:50.229Z,101906.08
2019-01-11T21:18:21.392Z,101905.69
2019-01-11T21:20:51.351Z,101903.06
2019-01-11T21:23:21.257Z,101906.08
2019-01-11T21:25:51.322Z,101906.70
2019-01-11T21:28:21.266Z,101910.19
2019-01-11T21:30:57.071Z,101908.88
2019-01-11T21:33:23.621Z,101912.34
2019-01-11T21:35:53.551Z,101910.94
2019-01-11T21:38:23.552Z,101907.95
2019-01-11T21:40:53.887Z,101910.47
2019-01-11T21:43:23.831Z,101907.45
2019-01-11T21:45:54.016Z,101917.14
2019-01-11T21:48:23.873Z,101918.45
2019-01-11T21:50:53.702Z,101915.27
2019-01-11T21:53:23.513Z,101922.22
2019-01-11T21:55:53.547Z,101923.14
2019-01-11T21:58:23.826Z,101920.52
2019-01-11T22:00:54.804Z,101923.92
2019-01-11T22:03:24.981Z,101925.23
2019-01-11T22:05:54.934Z,101928.31
2019-01-11T22:08:24.956Z,101931.40
2019-01-11T22:10:55.285Z,101918.34
2019-01-11T22:13:26.366Z,101924.70
2019-01-11T22:15:56.754Z,101924.24
2019-01-11T22:18:26.964Z,101924.63
2019-01-11T22:20:56.893Z,101927.72
2019-01-11T22:23:26.786Z,101922.86
2019-01-11T22:25:57.326Z,101930.34
2019-01-11T22:28:27.394Z,101926.94
2019-01-11T22:30:57.323Z,101926.80
2019-01-11T22:33:27.190Z,101925.23
2019-01-11T22:35:57.116Z,101926.94
2019-01-11T22:38:27.125Z,101927.85
2019-01-11T22:40:58.519Z,101926.08
2019-01-11T22:43:28.423Z,101925.76
2019-01-11T22:45:58.287Z,101931.33
2019-01-11T22:48:29.106Z,101931.80
2019-01-11T22:50:59.044Z,101923.53
2019-01-11T22:53:29.183Z,101921.30
2019-01-11T22:55:59.152Z,101922.74
2019-01-11T22:58:29.059Z,101921.75
2019-01-11T23:01:28.510Z,101921.99
2019-01-11T23:03:58.619Z,101923.70
2019-01-11T23:06:54.503Z,101918.98
2019-01-11T23:09:28.171Z,101916.28
2019-01-11T23:12:42.400Z,101913.86
2019-01-11T23:15:17.749Z,101912.55
2019-01-11T23:17:54.591Z,101914.00
2019-01-11T23:20:24.510Z,101920.49
2019-01-11T23:22:54.437Z,101917.02
2019-01-11T23:25:24.354Z,101920.55
2019-01-11T23:27:54.216Z,101920.63
2019-01-11T23:30:25.138Z,101917.22
2019-01-11T23:32:55.137Z,101925.55
2019-01-11T23:35:25.104Z,101927.31
2019-01-11T23:37:55.387Z,101921.16
2019-01-11T23:40:25.803Z,101927.31
2019-01-11T23:42:55.579Z,101937.81
2019-01-11T23:45:25.612Z,101931.32
2019-01-11T23:47:55.763Z,101936.11
2019-01-11T23:50:25.785Z,101932.63
2019-01-11T23:52:56.355Z,101935.64
2019-01-11T23:55:26.227Z,101933.65
2019-01-11T23:57:56.205Z,101937.02
